createdAt,value
2023-09-30T00:00:50.920Z,13.92
2023-09-30T00:01:54.396Z,13.87
2023-09-30T00:02:57.446Z,13.89
2023-09-30T00:04:02.459Z,13.87
2023-09-30T00:05:06.521Z,13.83
2023-09-30T00:06:09.498Z,13.75
2023-09-30T00:07:12.672Z,13.67
2023-09-30T00:08:15.652Z,13.48
2023-09-30T00:09:18.639Z,13.56
2023-09-30T00:10:21.352Z,13.57
2023-09-30T00:11:24.215Z,13.58
2023-09-30T00:12:28.321Z,13.63
2023-09-30T00:13:31.376Z,13.64
2023-09-30T00:14:34.221Z,13.62
2023-09-30T00:15:37.226Z,13.54
2023-09-30T00:16:40.473Z,13.56
2023-09-30T00:17:43.996Z,13.50
2023-09-30T00:18:47.544Z,13.43
2023-09-30T00:19:50.515Z,13.43
2023-09-30T00:20:53.462Z,13.43
2023-09-30T00:21:56.649Z,13.47
2023-09-30T00:22:59.792Z,13.25
2023-09-30T00:24:02.766Z,13.55
2023-09-30T00:25:06.037Z,13.50
2023-09-30T00:26:09.210Z,13.57
2023-09-30T00:27:11.971Z,13.57
2023-09-30T00:28:16.038Z,13.55
2023-09-30T00:29:19.176Z,13.53
2023-09-30T00:30:25.050Z,13.54
2023-09-30T00:31:27.970Z,13.55
2023-09-30T00:32:32.483Z,13.55
2023-09-30T00:33:35.756Z,13.54
2023-09-30T00:34:38.823Z,13.54
2023-09-30T00:35:41.680Z,13.51
2023-09-30T00:36:44.491Z,13.48
2023-09-30T00:37:48.035Z,13.47
2023-09-30T00:38:51.064Z,13.47
2023-09-30T00:39:54.745Z,13.46
2023-09-30T00:40:57.640Z,13.37
2023-09-30T00:42:00.788Z,13.42
2023-09-30T00:43:04.842Z,13.38
2023-09-30T00:44:09.344Z,13.40
2023-09-30T00:45:12.556Z,13.45
2023-09-30T00:46:28.278Z,13.41
2023-09-30T00:47:31.652Z,13.44
2023-09-30T00:48:35.875Z,13.46
2023-09-30T00:49:39.892Z,13.45
2023-09-30T00:50:43.448Z,13.46
2023-09-30T00:51:49.533Z,13.46
2023-09-30T00:52:52.805Z,13.50
2023-09-30T00:54:00.188Z,13.51
2023-09-30T00:55:04.398Z,13.53
2023-09-30T00:56:07.628Z,13.35
2023-09-30T00:57:12.522Z,13.58
2023-09-30T00:58:15.630Z,13.28
2023-09-30T00:59:18.604Z,13.45
2023-09-30T01:00:21.735Z,13.38
2023-09-30T01:01:25.226Z,13.34
2023-09-30T01:02:28.112Z,13.31
2023-09-30T01:03:31.068Z,13.28
2023-09-30T01:04:34.386Z,13.30
2023-09-30T01:05:37.780Z,13.31
2023-09-30T01:06:40.496Z,13.22
2023-09-30T01:07:43.469Z,13.29
2023-09-30T01:08:46.405Z,13.31
2023-09-30T01:09:49.618Z,13.36
2023-09-30T01:10:52.889Z,13.36
2023-09-30T01:11:55.795Z,13.37
2023-09-30T01:12:58.860Z,13.39
2023-09-30T01:14:01.802Z,13.40
2023-09-30T01:15:08.381Z,13.40
2023-09-30T01:16:12.733Z,13.34
2023-09-30T01:17:16.263Z,13.28
2023-09-30T01:18:19.367Z,13.22
2023-09-30T01:19:22.515Z,13.19
2023-09-30T01:20:25.767Z,12.89
2023-09-30T01:21:29.149Z,12.90
2023-09-30T01:22:31.970Z,13.22
2023-09-30T01:23:36.601Z,13.16
2023-09-30T01:24:43.699Z,13.19
2023-09-30T01:25:46.706Z,13.23
2023-09-30T01:26:50.042Z,13.20
2023-09-30T01:27:53.252Z,13.23
2023-09-30T01:28:56.196Z,13.20
2023-09-30T01:29:59.362Z,13.19
2023-09-30T01:31:02.107Z,13.19
2023-09-30T01:32:10.175Z,13.08
2023-09-30T01:33:13.176Z,12.96
2023-09-30T01:34:16.693Z,13.02
2023-09-30T01:35:19.669Z,12.76
2023-09-30T01:36:22.404Z,13.15
2023-09-30T01:37:29.017Z,13.17
2023-09-30T01:38:32.019Z,12.98
2023-09-30T01:39:35.256Z,13.13
2023-09-30T01:40:38.863Z,13.14
2023-09-30T01:41:42.153Z,13.16
2023-09-30T01:42:46.590Z,13.19
2023-09-30T01:43:49.923Z,13.20
2023-09-30T01:44:52.996Z,12.93
2023-09-30T01:45:56.191Z,13.19
2023-09-30T01:46:59.780Z,13.10
2023-09-30T01:48:04.064Z,13.05
2023-09-30T01:49:06.966Z,12.93
2023-09-30T01:50:10.276Z,12.88
2023-09-30T01:51:13.125Z,12.73
2023-09-30T01:52:16.230Z,12.85
2023-09-30T01:53:19.409Z,12.76
2023-09-30T01:54:22.144Z,12.74
2023-09-30T01:55:25.237Z,12.71
2023-09-30T01:56:28.154Z,12.79
2023-09-30T01:57:30.838Z,12.82
2023-09-30T01:58:33.791Z,12.80
2023-09-30T01:59:36.837Z,12.81
2023-09-30T02:00:39.992Z,12.83
2023-09-30T02:01:43.325Z,12.84
2023-09-30T02:02:46.483Z,12.84
2023-09-30T02:03:49.608Z,12.87
2023-09-30T02:04:52.644Z,12.53
2023-09-30T02:05:55.808Z,12.82
2023-09-30T02:06:59.836Z,12.86
2023-09-30T02:08:07.339Z,12.94
2023-09-30T02:09:10.562Z,12.86
2023-09-30T02:10:13.455Z,12.98
2023-09-30T02:11:18.545Z,12.97
2023-09-30T02:12:21.681Z,12.93
2023-09-30T02:13:24.403Z,12.83
2023-09-30T02:14:27.317Z,12.79
2023-09-30T02:15:30.283Z,12.75
2023-09-30T02:16:33.219Z,12.75
2023-09-30T02:17:36.638Z,12.72
2023-09-30T02:18:39.486Z,12.56
2023-09-30T02:19:43.033Z,12.67
2023-09-30T02:20:46.078Z,12.70
2023-09-30T02:21:49.632Z,12.73
2023-09-30T02:22:53.462Z,12.65
2023-09-30T02:23:56.876Z,12.75
2023-09-30T02:25:00.084Z,12.77
2023-09-30T02:26:04.209Z,12.82
2023-09-30T02:27:07.327Z,12.72
2023-09-30T02:28:10.640Z,12.54
2023-09-30T02:29:13.293Z,12.67
2023-09-30T02:30:17.498Z,12.76
2023-09-30T02:31:20.693Z,12.75
2023-09-30T02:32:25.272Z,12.70
2023-09-30T02:33:28.548Z,12.73
2023-09-30T02:34:32.101Z,12.75
2023-09-30T02:35:34.794Z,12.72
2023-09-30T02:36:40.305Z,12.76
2023-09-30T02:37:43.322Z,12.72
2023-09-30T02:38:47.610Z,12.65
2023-09-30T02:39:50.554Z,12.57
2023-09-30T02:40:55.875Z,12.57
2023-09-30T02:41:58.944Z,12.59
2023-09-30T02:43:02.271Z,12.55
2023-09-30T02:44:05.652Z,12.53
2023-09-30T02:45:09.899Z,12.49
2023-09-30T02:46:13.880Z,12.47
2023-09-30T02:47:17.337Z,12.46
2023-09-30T02:48:20.188Z,12.44
2023-09-30T02:49:23.233Z,12.44
2023-09-30T02:50:26.212Z,12.45
2023-09-30T02:51:29.692Z,12.43
2023-09-30T02:52:33.350Z,12.42
2023-09-30T02:53:36.282Z,12.42
2023-09-30T02:54:39.462Z,12.34
2023-09-30T02:55:43.288Z,12.37
2023-09-30T02:56:47.737Z,12.17
2023-09-30T02:57:51.052Z,12.42
2023-09-30T02:58:54.005Z,12.42
2023-09-30T02:59:57.859Z,12.44
2023-09-30T03:01:01.148Z,12.47
2023-09-30T03:02:08.084Z,12.43
2023-09-30T03:03:11.466Z,12.39
2023-09-30T03:04:14.589Z,12.34
2023-09-30T03:05:18.560Z,12.31
2023-09-30T03:06:21.316Z,12.30
2023-09-30T03:07:24.058Z,12.28
2023-09-30T03:08:27.731Z,12.28
2023-09-30T03:09:30.680Z,12.25
2023-09-30T03:10:33.455Z,12.15
2023-09-30T03:11:36.326Z,12.08
2023-09-30T03:12:38.947Z,12.06
2023-09-30T03:13:43.764Z,12.12
2023-09-30T03:14:46.739Z,12.19
2023-09-30T03:15:53.035Z,12.23
2023-09-30T03:16:55.990Z,12.26
2023-09-30T03:18:01.144Z,12.24
2023-09-30T03:19:09.391Z,12.23
2023-09-30T03:20:15.947Z,12.22
2023-09-30T03:21:18.949Z,12.20
2023-09-30T03:22:21.842Z,12.21
2023-09-30T03:23:30.251Z,12.18
2023-09-30T03:24:33.439Z,12.16
2023-09-30T03:25:36.522Z,12.13
2023-09-30T03:26:42.205Z,12.15
2023-09-30T03:27:48.286Z,12.04
2023-09-30T03:28:51.542Z,12.15
2023-09-30T03:29:55.347Z,12.19
2023-09-30T03:30:58.102Z,12.23
2023-09-30T03:32:01.088Z,12.23
2023-09-30T03:33:05.835Z,12.17
2023-09-30T03:34:09.867Z,12.15
2023-09-30T03:35:18.383Z,12.13
2023-09-30T03:36:23.580Z,12.16
2023-09-30T03:37:28.020Z,12.18
2023-09-30T03:38:30.729Z,12.22
2023-09-30T03:39:34.209Z,12.26
2023-09-30T03:40:39.640Z,12.21
2023-09-30T03:41:42.251Z,12.18
2023-09-30T03:42:45.096Z,12.19
2023-09-30T03:43:50.407Z,12.17
2023-09-30T03:44:53.356Z,11.77
2023-09-30T03:45:58.551Z,11.93
2023-09-30T03:47:01.931Z,12.17
2023-09-30T03:48:05.273Z,12.18
2023-09-30T03:49:09.734Z,12.19
2023-09-30T03:50:16.470Z,12.15
2023-09-30T03:51:20.450Z,12.13
2023-09-30T03:52:26.811Z,12.09
2023-09-30T03:53:29.970Z,12.01
2023-09-30T03:54:32.854Z,12.00
2023-09-30T03:55:35.915Z,11.98
2023-09-30T03:56:39.795Z,12.06
2023-09-30T03:57:42.879Z,12.07
2023-09-30T03:58:46.216Z,12.05
2023-09-30T03:59:49.264Z,12.03
2023-09-30T04:00:53.283Z,12.04
2023-09-30T04:01:56.319Z,11.96
2023-09-30T04:03:00.041Z,11.84
2023-09-30T04:04:03.923Z,11.87
2023-09-30T04:05:08.149Z,11.88
2023-09-30T04:06:11.257Z,11.92
2023-09-30T04:07:14.524Z,11.93
2023-09-30T04:08:18.276Z,11.92
2023-09-30T04:09:21.204Z,11.95
2023-09-30T04:10:24.189Z,11.76
2023-09-30T04:11:26.993Z,11.79
2023-09-30T04:12:30.093Z,11.80
2023-09-30T04:13:34.318Z,11.86
2023-09-30T04:14:37.248Z,11.92
2023-09-30T04:15:40.610Z,11.91
2023-09-30T04:16:44.219Z,11.82
2023-09-30T04:17:47.319Z,11.66
2023-09-30T04:18:51.510Z,11.76
2023-09-30T04:19:54.982Z,11.65
2023-09-30T04:20:58.238Z,11.44
2023-09-30T04:22:01.316Z,11.60
2023-09-30T04:23:04.357Z,11.63
2023-09-30T04:24:08.141Z,11.67
2023-09-30T04:25:12.066Z,11.73
2023-09-30T04:26:14.709Z,11.75
2023-09-30T04:27:18.227Z,11.80
2023-09-30T04:28:21.775Z,11.82
2023-09-30T04:29:24.747Z,11.84
2023-09-30T04:30:28.898Z,11.84
2023-09-30T04:31:32.015Z,11.84
2023-09-30T04:32:35.010Z,11.66
2023-09-30T04:33:38.838Z,11.61
2023-09-30T04:34:43.541Z,11.65
2023-09-30T04:35:48.637Z,11.74
2023-09-30T04:36:51.418Z,11.78
2023-09-30T04:37:54.352Z,11.81
2023-09-30T04:39:02.207Z,11.72
2023-09-30T04:40:21.493Z,11.60
2023-09-30T04:41:26.998Z,11.52
2023-09-30T04:42:29.963Z,11.54
2023-09-30T04:43:33.900Z,11.62
2023-09-30T04:44:38.957Z,11.36
2023-09-30T04:45:41.894Z,11.68
2023-09-30T04:46:47.445Z,11.64
2023-09-30T04:47:50.774Z,11.68
2023-09-30T04:48:53.865Z,11.71
2023-09-30T04:50:00.330Z,11.76
2023-09-30T04:51:07.666Z,11.80
2023-09-30T04:52:10.777Z,11.79
2023-09-30T04:53:14.260Z,11.48
2023-09-30T04:54:17.165Z,11.75
2023-09-30T04:55:21.044Z,11.73
2023-09-30T04:56:24.459Z,11.73
2023-09-30T04:57:27.848Z,11.82
2023-09-30T04:58:31.130Z,11.78
2023-09-30T04:59:34.087Z,11.89
2023-09-30T05:00:37.488Z,11.90
2023-09-30T05:01:40.421Z,11.86
2023-09-30T05:02:44.251Z,11.80
2023-09-30T05:03:50.858Z,11.78
2023-09-30T05:04:54.490Z,11.84
2023-09-30T05:05:59.428Z,11.95
2023-09-30T05:07:02.564Z,12.06
2023-09-30T05:08:05.633Z,12.19
2023-09-30T05:09:08.991Z,12.30
2023-09-30T05:10:15.052Z,12.44
2023-09-30T05:11:18.119Z,12.53
2023-09-30T05:12:21.495Z,12.59
2023-09-30T05:13:27.128Z,12.63
2023-09-30T05:14:30.234Z,12.71
2023-09-30T05:15:34.156Z,12.74
2023-09-30T05:16:37.992Z,12.78
2023-09-30T05:17:41.068Z,12.89
2023-09-30T05:18:44.504Z,13.07
2023-09-30T05:19:47.556Z,13.25
2023-09-30T05:20:50.803Z,13.30
2023-09-30T05:21:53.945Z,13.40
2023-09-30T05:22:57.447Z,13.57
2023-09-30T05:24:00.070Z,13.65
2023-09-30T05:25:03.299Z,13.63
2023-09-30T05:26:06.306Z,13.39
2023-09-30T05:27:10.714Z,13.79
2023-09-30T05:28:14.887Z,13.92
2023-09-30T05:29:18.032Z,13.97
2023-09-30T05:30:21.537Z,13.96
2023-09-30T05:31:24.512Z,13.95
2023-09-30T05:32:28.283Z,13.97
2023-09-30T05:33:31.822Z,13.93
2023-09-30T05:34:34.720Z,13.96
2023-09-30T05:35:37.291Z,14.08
2023-09-30T05:36:40.648Z,14.21
2023-09-30T05:37:46.478Z,14.25
2023-09-30T05:38:49.516Z,14.38
2023-09-30T05:39:52.412Z,14.36
2023-09-30T05:41:03.358Z,14.54
2023-09-30T05:42:06.905Z,14.66
2023-09-30T05:43:10.035Z,14.37
2023-09-30T05:44:12.883Z,14.85
2023-09-30T05:45:16.925Z,14.82
2023-09-30T05:46:20.117Z,15.02
2023-09-30T05:47:22.778Z,15.15
2023-09-30T05:48:25.978Z,15.16
2023-09-30T05:49:28.929Z,15.12
2023-09-30T05:50:32.782Z,15.22
2023-09-30T05:51:35.656Z,15.19
2023-09-30T05:52:38.629Z,15.40
2023-09-30T05:53:44.481Z,15.37
2023-09-30T05:54:47.602Z,15.53
2023-09-30T05:55:52.051Z,15.68
2023-09-30T05:56:55.040Z,15.63
2023-09-30T05:57:57.850Z,15.76
2023-09-30T05:59:01.282Z,15.76
2023-09-30T06:00:28.182Z,15.85
2023-09-30T06:01:31.610Z,15.93
2023-09-30T06:02:38.137Z,15.95
2023-09-30T06:03:42.648Z,15.92
2023-09-30T06:04:47.486Z,16.05
2023-09-30T06:05:50.451Z,16.14
2023-09-30T06:06:54.504Z,15.93
2023-09-30T06:07:58.038Z,16.28
2023-09-30T06:09:01.151Z,16.27
2023-09-30T06:10:04.458Z,16.37
2023-09-30T06:11:07.794Z,16.48
2023-09-30T06:12:13.129Z,16.56
2023-09-30T06:13:16.868Z,16.64
2023-09-30T06:14:20.011Z,16.56
2023-09-30T06:15:27.204Z,16.75
2023-09-30T06:16:33.044Z,16.64
2023-09-30T06:17:36.285Z,16.41
2023-09-30T06:18:39.549Z,16.38
2023-09-30T06:19:42.484Z,16.68
2023-09-30T06:20:45.352Z,16.81
2023-09-30T06:21:48.534Z,17.01
2023-09-30T06:22:51.661Z,16.89
2023-09-30T06:23:54.574Z,16.84
2023-09-30T06:24:57.595Z,16.90
2023-09-30T06:26:03.546Z,16.98
2023-09-30T06:27:06.990Z,16.91
2023-09-30T06:28:10.863Z,17.05
2023-09-30T06:29:13.825Z,17.25
2023-09-30T06:30:17.868Z,17.32
2023-09-30T06:31:21.438Z,17.46
2023-09-30T06:32:24.411Z,17.51
2023-09-30T06:33:30.831Z,17.64
2023-09-30T06:34:35.649Z,17.69
2023-09-30T06:35:41.273Z,17.74
2023-09-30T06:36:44.934Z,17.84
2023-09-30T06:37:48.757Z,17.94
2023-09-30T06:38:53.221Z,18.02
2023-09-30T06:39:56.882Z,18.03
2023-09-30T06:41:01.108Z,17.87
2023-09-30T06:42:04.723Z,17.99
2023-09-30T06:43:07.291Z,17.82
2023-09-30T06:44:10.526Z,17.97
2023-09-30T06:45:14.203Z,17.89
2023-09-30T06:46:17.942Z,17.91
2023-09-30T06:47:21.990Z,18.14
2023-09-30T06:48:25.018Z,18.27
2023-09-30T06:49:29.135Z,18.37
2023-09-30T06:50:32.832Z,18.52
2023-09-30T06:51:35.468Z,18.54
2023-09-30T06:52:40.984Z,18.63
2023-09-30T06:53:43.869Z,18.73
2023-09-30T06:54:47.064Z,18.87
2023-09-30T06:55:50.122Z,18.98
2023-09-30T06:56:53.846Z,19.01
2023-09-30T06:57:56.608Z,19.07
2023-09-30T06:58:59.341Z,19.11
2023-09-30T07:00:13.054Z,18.99
2023-09-30T07:01:18.719Z,19.14
2023-09-30T07:02:21.353Z,18.23
2023-09-30T07:03:26.972Z,19.38
2023-09-30T07:04:31.396Z,19.38
2023-09-30T07:05:34.661Z,19.50
2023-09-30T07:06:37.313Z,19.50
2023-09-30T07:07:41.054Z,19.53
2023-09-30T07:08:44.581Z,19.59
2023-09-30T07:09:47.559Z,19.71
2023-09-30T07:10:50.986Z,19.72
2023-09-30T07:11:53.769Z,19.77
2023-09-30T07:12:57.119Z,19.85
2023-09-30T07:14:02.412Z,19.96
2023-09-30T07:15:08.548Z,20.02
2023-09-30T07:16:11.819Z,20.09
2023-09-30T07:17:15.356Z,20.12
2023-09-30T07:18:19.389Z,19.90
2023-09-30T07:19:22.451Z,20.26
2023-09-30T07:20:25.398Z,20.27
2023-09-30T07:21:28.764Z,20.41
2023-09-30T07:23:38.663Z,20.46
2023-09-30T07:24:41.320Z,20.69
2023-09-30T07:25:44.261Z,20.67
2023-09-30T07:26:47.506Z,20.59
2023-09-30T07:27:50.523Z,20.68
2023-09-30T07:28:55.553Z,20.68
2023-09-30T07:29:58.705Z,20.86
2023-09-30T07:31:01.690Z,20.94
2023-09-30T07:32:05.134Z,20.97
2023-09-30T07:33:08.259Z,20.87
2023-09-30T07:34:10.979Z,20.97
2023-09-30T07:35:16.625Z,20.94
2023-09-30T07:36:19.771Z,20.89
2023-09-30T07:37:22.988Z,21.22
2023-09-30T07:38:25.915Z,21.32
2023-09-30T07:39:28.820Z,21.34
2023-09-30T07:40:31.690Z,21.48
2023-09-30T07:41:37.975Z,21.55
2023-09-30T07:42:41.390Z,21.54
2023-09-30T07:43:44.167Z,21.44
2023-09-30T07:44:47.083Z,21.45
2023-09-30T07:45:49.751Z,21.38
2023-09-30T07:46:53.331Z,21.18
2023-09-30T07:47:56.436Z,21.41
2023-09-30T07:49:00.788Z,21.53
2023-09-30T07:50:07.687Z,21.63
2023-09-30T07:51:14.160Z,21.80
2023-09-30T07:52:16.913Z,21.95
2023-09-30T07:53:19.906Z,22.06
2023-09-30T07:54:31.386Z,22.10
2023-09-30T07:55:34.985Z,21.94
2023-09-30T07:56:37.637Z,22.18
2023-09-30T07:57:43.302Z,22.12
2023-09-30T07:58:46.572Z,22.13
2023-09-30T07:59:50.127Z,22.24
2023-09-30T08:00:53.037Z,22.32
2023-09-30T08:01:56.157Z,22.38
2023-09-30T08:03:01.786Z,22.48
2023-09-30T08:04:05.255Z,22.69
2023-09-30T08:05:08.505Z,22.75
2023-09-30T08:06:11.124Z,22.78
2023-09-30T08:07:14.875Z,22.94
2023-09-30T08:08:17.613Z,23.02
2023-09-30T08:09:20.360Z,23.04
2023-09-30T08:10:23.386Z,22.98
2023-09-30T08:11:28.749Z,23.05
2023-09-30T08:12:31.954Z,23.11
2023-09-30T08:13:35.254Z,23.21
2023-09-30T08:14:38.162Z,23.36
2023-09-30T08:15:41.200Z,23.42
2023-09-30T08:16:44.323Z,23.36
2023-09-30T08:17:47.911Z,23.46
2023-09-30T08:18:50.960Z,23.55
2023-09-30T08:19:53.853Z,23.56
2023-09-30T08:20:56.855Z,23.51
2023-09-30T08:21:59.819Z,23.60
2023-09-30T08:23:03.118Z,23.70
2023-09-30T08:24:06.340Z,23.49
2023-09-30T08:25:10.162Z,23.69
2023-09-30T08:26:12.831Z,23.62
2023-09-30T08:27:15.800Z,23.82
2023-09-30T08:28:18.982Z,23.87
2023-09-30T08:29:22.273Z,24.03
2023-09-30T08:30:24.876Z,23.94
2023-09-30T08:31:27.839Z,24.03
2023-09-30T08:32:39.263Z,24.14
2023-09-30T08:33:45.015Z,24.28
2023-09-30T08:34:47.944Z,24.33
2023-09-30T08:35:52.084Z,24.35
2023-09-30T08:36:55.126Z,24.38
2023-09-30T08:37:59.457Z,24.10
2023-09-30T08:39:02.768Z,24.25
2023-09-30T08:40:06.255Z,24.34
2023-09-30T08:41:09.528Z,24.61
2023-09-30T08:42:12.756Z,24.66
2023-09-30T08:43:20.765Z,24.65
2023-09-30T08:44:24.182Z,24.68
2023-09-30T08:45:29.467Z,24.84
2023-09-30T08:46:35.072Z,24.95
2023-09-30T08:47:38.360Z,25.14
2023-09-30T08:48:41.436Z,25.11
2023-09-30T08:49:45.334Z,25.22
2023-09-30T08:50:50.532Z,25.33
2023-09-30T08:51:57.243Z,25.27
2023-09-30T08:53:01.735Z,25.13
2023-09-30T08:54:05.298Z,25.15
2023-09-30T08:55:10.126Z,25.29
2023-09-30T08:56:16.174Z,25.42
2023-09-30T08:57:20.743Z,24.90
2023-09-30T08:58:29.834Z,25.13
2023-09-30T08:59:36.409Z,25.06
2023-09-30T09:00:40.693Z,25.08
2023-09-30T09:01:44.632Z,25.26
2023-09-30T09:02:47.958Z,25.48
2023-09-30T09:03:54.229Z,25.45
2023-09-30T09:04:59.507Z,25.62
2023-09-30T09:06:03.399Z,25.83
2023-09-30T09:07:06.119Z,25.88
2023-09-30T09:08:10.969Z,25.83
2023-09-30T09:09:18.774Z,26.00
2023-09-30T09:10:21.894Z,26.01
2023-09-30T09:11:25.553Z,26.23
2023-09-30T09:12:28.554Z,26.32
2023-09-30T09:13:56.769Z,26.37
2023-09-30T09:14:59.818Z,26.24
2023-09-30T09:16:12.696Z,26.39
2023-09-30T09:17:17.261Z,26.21
2023-09-30T09:18:37.392Z,26.49
2023-09-30T09:19:40.433Z,26.61
2023-09-30T09:20:43.284Z,26.56
2023-09-30T09:21:57.922Z,25.97
2023-09-30T09:23:01.627Z,26.21
2023-09-30T09:24:04.787Z,26.34
2023-09-30T09:25:08.584Z,26.70
2023-09-30T09:26:12.876Z,26.75
2023-09-30T09:27:20.923Z,26.84
2023-09-30T09:28:35.546Z,26.93
2023-09-30T09:29:39.917Z,26.98
2023-09-30T09:30:45.000Z,26.92
2023-09-30T09:31:47.965Z,27.02
2023-09-30T09:33:01.768Z,27.25
2023-09-30T09:34:14.137Z,27.39
2023-09-30T09:35:23.799Z,27.22
2023-09-30T09:36:44.630Z,27.52
2023-09-30T09:37:59.554Z,27.38
2023-09-30T09:39:02.540Z,27.44
2023-09-30T09:40:08.842Z,27.58
2023-09-30T09:41:11.707Z,27.47
2023-09-30T09:42:25.699Z,27.54
2023-09-30T09:43:28.671Z,27.81
2023-09-30T09:44:32.509Z,27.83
2023-09-30T09:45:37.901Z,27.70
2023-09-30T09:46:40.974Z,27.61
2023-09-30T09:47:43.862Z,27.36
2023-09-30T09:48:50.623Z,27.30
2023-09-30T09:49:55.472Z,27.21
2023-09-30T09:51:00.461Z,27.12
2023-09-30T09:52:04.946Z,27.38
2023-09-30T09:53:09.915Z,27.47
2023-09-30T09:54:13.881Z,27.40
2023-09-30T09:55:18.354Z,27.51
2023-09-30T09:56:22.619Z,27.58
2023-09-30T09:57:27.255Z,27.52
2023-09-30T09:58:34.759Z,27.92
2023-09-30T09:59:41.405Z,28.04
2023-09-30T10:00:46.373Z,28.35
2023-09-30T10:01:50.534Z,28.14
2023-09-30T10:02:54.606Z,28.20
2023-09-30T10:03:58.141Z,28.32
2023-09-30T10:05:03.845Z,28.44
2023-09-30T10:06:07.628Z,28.35
2023-09-30T10:07:17.788Z,28.17
2023-09-30T10:08:22.975Z,28.56
2023-09-30T10:09:27.841Z,28.69
2023-09-30T10:10:32.653Z,28.87
2023-09-30T10:11:36.838Z,28.87
2023-09-30T10:12:40.722Z,28.82
2023-09-30T10:14:04.240Z,29.10
2023-09-30T10:15:25.499Z,29.32
2023-09-30T10:16:37.704Z,29.42
2023-09-30T10:18:13.944Z,29.40
2023-09-30T10:19:23.626Z,29.48
2023-09-30T10:20:31.900Z,29.20
2023-09-30T10:21:34.981Z,29.62
2023-09-30T10:22:38.254Z,29.57
2023-09-30T10:23:41.164Z,29.68
2023-09-30T10:24:44.698Z,29.84
2023-09-30T10:25:48.939Z,29.87
2023-09-30T10:27:25.824Z,29.63
2023-09-30T10:28:42.311Z,29.80
2023-09-30T10:29:45.956Z,29.76
2023-09-30T10:31:26.296Z,29.93
2023-09-30T10:32:51.341Z,29.56
2023-09-30T10:34:03.544Z,29.29
2023-09-30T10:35:07.472Z,29.03
2023-09-30T10:36:10.536Z,29.06
2023-09-30T10:37:26.153Z,29.10
2023-09-30T10:38:35.028Z,29.24
2023-09-30T10:40:05.638Z,29.42
2023-09-30T10:41:10.428Z,29.45
2023-09-30T10:42:52.361Z,29.27
2023-09-30T10:43:55.401Z,29.38
2023-09-30T10:44:58.088Z,29.48
2023-09-30T10:46:01.899Z,29.57
2023-09-30T10:47:23.605Z,29.49
2023-09-30T10:48:26.614Z,29.46
2023-09-30T10:49:29.674Z,29.57
2023-09-30T10:51:02.870Z,29.66
2023-09-30T10:52:06.523Z,29.79
2023-09-30T10:53:10.477Z,29.99
2023-09-30T10:54:14.314Z,29.88
2023-09-30T10:55:20.663Z,29.87
2023-09-30T10:56:24.651Z,29.78
2023-09-30T10:57:31.909Z,29.84
2023-09-30T10:58:41.237Z,29.91
2023-09-30T10:59:43.889Z,29.88
2023-09-30T11:00:56.552Z,29.67
2023-09-30T11:02:00.118Z,29.49
2023-09-30T11:03:03.998Z,29.58
2023-09-30T11:04:09.811Z,29.39
2023-09-30T11:05:13.165Z,29.31
2023-09-30T11:06:22.427Z,29.45
2023-09-30T11:07:27.420Z,29.56
2023-09-30T11:08:31.387Z,29.48
2023-09-30T11:09:35.319Z,29.60
2023-09-30T11:10:38.282Z,29.78
2023-09-30T11:11:50.161Z,29.90
2023-09-30T11:12:59.815Z,30.03
2023-09-30T11:14:03.801Z,30.15
2023-09-30T11:15:10.150Z,29.77
2023-09-30T11:16:13.977Z,29.82
2023-09-30T11:17:23.322Z,29.90
2023-09-30T11:18:26.315Z,29.99
2023-09-30T11:19:50.089Z,30.01
2023-09-30T11:21:08.098Z,29.99
2023-09-30T11:22:11.141Z,29.79
2023-09-30T11:23:13.964Z,29.87
2023-09-30T11:24:17.333Z,29.92
2023-09-30T11:25:20.732Z,29.95
2023-09-30T11:26:34.428Z,29.92
2023-09-30T11:27:37.830Z,29.97
2023-09-30T11:28:44.590Z,30.14
2023-09-30T11:29:51.389Z,30.09
2023-09-30T11:30:59.455Z,29.98
2023-09-30T11:32:04.139Z,29.87
2023-09-30T11:33:08.484Z,29.92
2023-09-30T11:34:12.831Z,29.94
2023-09-30T11:35:24.987Z,29.65
2023-09-30T11:36:28.339Z,29.27
2023-09-30T11:37:35.001Z,29.01
2023-09-30T11:38:38.053Z,29.12
2023-09-30T11:39:41.672Z,29.33
2023-09-30T11:40:59.622Z,29.27
2023-09-30T11:42:03.830Z,29.51
2023-09-30T11:43:13.472Z,29.72
2023-09-30T11:44:17.867Z,29.53
2023-09-30T11:45:23.743Z,29.64
2023-09-30T11:46:29.104Z,29.53
2023-09-30T11:47:34.297Z,29.33
2023-09-30T11:49:01.258Z,29.43
2023-09-30T11:50:05.774Z,29.56
2023-09-30T11:51:09.451Z,29.51
2023-09-30T11:52:14.687Z,29.49
2023-09-30T11:53:19.205Z,29.41
2023-09-30T11:54:23.847Z,29.48
2023-09-30T11:55:28.118Z,28.87
2023-09-30T11:56:31.039Z,29.37
2023-09-30T11:57:36.102Z,29.41
2023-09-30T11:58:40.630Z,29.61
2023-09-30T11:59:46.393Z,29.58
2023-09-30T12:00:52.137Z,29.82
2023-09-30T12:02:10.691Z,29.84
2023-09-30T12:03:16.347Z,29.75
2023-09-30T12:04:20.527Z,29.97
2023-09-30T12:05:23.788Z,29.99
2023-09-30T12:06:27.048Z,29.74
2023-09-30T12:07:29.985Z,29.63
2023-09-30T12:08:33.287Z,29.23
2023-09-30T12:09:38.423Z,29.35
2023-09-30T12:10:41.648Z,29.44
2023-09-30T12:11:45.288Z,29.49
2023-09-30T12:12:48.890Z,29.51
2023-09-30T12:13:52.225Z,29.44
2023-09-30T12:14:56.241Z,29.48
2023-09-30T12:15:59.196Z,29.29
2023-09-30T12:17:02.294Z,29.12
2023-09-30T12:18:08.089Z,29.02
2023-09-30T12:19:11.406Z,28.88
2023-09-30T12:20:17.165Z,29.06
2023-09-30T12:21:21.559Z,28.94
2023-09-30T12:22:24.604Z,28.67
2023-09-30T12:23:27.765Z,28.46
2023-09-30T12:24:30.680Z,28.18
2023-09-30T12:25:34.651Z,28.22
2023-09-30T12:26:42.569Z,28.19
2023-09-30T12:27:45.577Z,28.01
2023-09-30T12:28:49.388Z,27.88
2023-09-30T12:29:53.166Z,27.89
2023-09-30T12:30:56.109Z,27.73
2023-09-30T12:31:58.877Z,27.62
2023-09-30T12:33:02.145Z,27.83
2023-09-30T12:34:05.562Z,27.95
2023-09-30T12:35:09.062Z,28.11
2023-09-30T12:36:14.227Z,28.32
2023-09-30T12:37:18.110Z,28.32
2023-09-30T12:38:21.058Z,28.13
2023-09-30T12:39:26.306Z,28.12
2023-09-30T12:40:30.829Z,28.03
2023-09-30T12:41:34.004Z,28.01
2023-09-30T12:42:36.749Z,27.99
2023-09-30T12:43:39.624Z,28.08
2023-09-30T12:44:42.958Z,28.04
2023-09-30T12:45:46.729Z,27.95
2023-09-30T12:46:49.784Z,28.00
2023-09-30T12:47:53.841Z,27.96
2023-09-30T12:48:56.918Z,27.88
2023-09-30T12:50:00.323Z,27.71
2023-09-30T12:51:05.990Z,27.55
2023-09-30T12:52:08.969Z,27.46
2023-09-30T12:53:11.913Z,27.36
2023-09-30T12:54:16.054Z,27.28
2023-09-30T12:55:19.705Z,27.17
2023-09-30T12:56:22.797Z,27.08
2023-09-30T12:57:25.546Z,26.89
2023-09-30T12:58:30.226Z,26.83
2023-09-30T12:59:35.373Z,26.64
2023-09-30T13:00:38.694Z,26.60
2023-09-30T13:01:42.203Z,26.51
2023-09-30T13:02:45.105Z,26.40
2023-09-30T13:03:51.202Z,26.38
2023-09-30T13:04:55.786Z,26.31
2023-09-30T13:05:59.179Z,26.29
2023-09-30T13:07:01.976Z,26.25
2023-09-30T13:08:05.425Z,26.18
2023-09-30T13:09:10.270Z,26.07
2023-09-30T13:10:14.224Z,26.05
2023-09-30T13:11:17.569Z,26.00
2023-09-30T13:12:20.247Z,25.86
2023-09-30T13:13:23.013Z,25.94
2023-09-30T13:14:25.675Z,25.91
2023-09-30T13:15:28.659Z,25.94
2023-09-30T13:16:32.522Z,25.84
2023-09-30T13:17:35.590Z,25.78
2023-09-30T13:18:38.616Z,25.77
2023-09-30T13:19:42.834Z,25.80
2023-09-30T13:20:45.447Z,25.79
2023-09-30T13:21:49.516Z,25.84
2023-09-30T13:22:52.271Z,25.83
2023-09-30T13:23:55.174Z,25.80
2023-09-30T13:24:58.170Z,25.74
2023-09-30T13:26:01.604Z,25.55
2023-09-30T13:27:05.020Z,25.78
2023-09-30T13:28:08.101Z,25.74
2023-09-30T13:29:12.939Z,25.73
2023-09-30T13:30:15.911Z,25.81
2023-09-30T13:31:18.882Z,25.74
2023-09-30T13:32:22.130Z,25.73
2023-09-30T13:33:25.338Z,25.68
2023-09-30T13:34:28.772Z,25.45
2023-09-30T13:35:31.903Z,25.76
2023-09-30T13:36:35.119Z,25.77
2023-09-30T13:37:38.408Z,25.68
2023-09-30T13:38:41.063Z,25.65
2023-09-30T13:39:43.861Z,25.66
2023-09-30T13:40:47.472Z,25.65
2023-09-30T13:41:50.230Z,25.61
2023-09-30T13:42:53.612Z,25.62
2023-09-30T13:43:56.494Z,25.65
2023-09-30T13:44:59.441Z,25.56
2023-09-30T13:46:08.207Z,25.57
2023-09-30T13:47:11.166Z,25.40
2023-09-30T13:48:14.420Z,25.39
2023-09-30T13:49:17.172Z,25.43
2023-09-30T13:50:19.913Z,25.41
2023-09-30T13:51:22.709Z,25.21
2023-09-30T13:52:25.717Z,25.26
2023-09-30T13:53:28.703Z,25.22
2023-09-30T13:54:31.814Z,25.15